createdAt,value
2023-05-01T00:00:32.453Z,6.63
2023-05-01T00:03:37.058Z,6.66
2023-05-01T00:06:41.772Z,6.62
2023-05-01T00:09:46.608Z,6.59
2023-05-01T00:12:51.085Z,6.54
2023-05-01T00:15:55.951Z,6.47
2023-05-01T00:19:00.292Z,6.49
2023-05-01T00:22:04.724Z,6.56
2023-05-01T00:25:10.562Z,6.53
2023-05-01T00:28:14.671Z,6.50
2023-05-01T00:31:18.935Z,6.43
2023-05-01T00:34:25.072Z,6.36
2023-05-01T00:37:29.723Z,6.31
2023-05-01T00:40:47.703Z,6.24
2023-05-01T00:43:52.278Z,6.20
2023-05-01T00:46:58.244Z,6.19
2023-05-01T00:50:03.565Z,6.19
2023-05-01T00:53:08.072Z,6.19
2023-05-01T00:56:12.598Z,6.17
2023-05-01T00:59:18.265Z,6.17
2023-05-01T01:02:23.199Z,6.15
2023-05-01T01:05:30.265Z,6.13
2023-05-01T01:09:08.335Z,6.12
2023-05-01T01:12:44.338Z,6.17
2023-05-01T01:16:15.940Z,6.23
2023-05-01T01:19:44.787Z,6.22
2023-05-01T01:23:22.196Z,6.37
2023-05-01T01:27:02.344Z,6.49
2023-05-01T01:31:14.180Z,6.64
2023-05-01T01:34:33.547Z,6.81
2023-05-01T01:38:17.891Z,6.92
2023-05-01T01:41:31.611Z,6.97
2023-05-01T01:44:56.210Z,7.05
2023-05-01T01:48:03.008Z,7.18
2023-05-01T01:51:16.514Z,7.16
2023-05-01T01:54:30.372Z,7.19
2023-05-01T01:57:39.391Z,7.23
2023-05-01T02:00:45.928Z,7.31
2023-05-01T02:03:52.904Z,7.39
2023-05-01T02:06:58.515Z,7.49
2023-05-01T02:10:05.941Z,7.49
2023-05-01T02:13:13.364Z,7.46
2023-05-01T02:16:19.367Z,7.53
2023-05-01T02:19:25.088Z,7.49
2023-05-01T02:22:33.510Z,7.56
2023-05-01T02:25:39.633Z,7.58
2023-05-01T02:28:44.352Z,7.64
2023-05-01T02:31:48.661Z,7.66
2023-05-01T02:34:53.676Z,7.64
2023-05-01T02:37:58.081Z,7.62
2023-05-01T02:41:03.948Z,7.67
2023-05-01T02:44:11.368Z,7.66
2023-05-01T02:47:21.448Z,7.60
2023-05-01T02:50:27.383Z,7.68
2023-05-01T02:53:34.083Z,7.64
2023-05-01T02:56:38.725Z,7.62
2023-05-01T02:59:42.947Z,7.66
2023-05-01T03:02:47.425Z,7.65
2023-05-01T03:05:52.164Z,7.64
2023-05-01T03:08:56.491Z,7.63
2023-05-01T03:12:01.089Z,7.63
2023-05-01T03:15:06.371Z,7.63
2023-05-01T03:18:10.833Z,7.63
2023-05-01T03:21:15.677Z,7.65
2023-05-01T03:24:19.951Z,7.64
2023-05-01T03:27:24.180Z,7.64
2023-05-01T03:30:28.170Z,7.61
2023-05-01T03:33:32.462Z,7.59
2023-05-01T03:36:37.245Z,7.62
2023-05-01T03:39:41.969Z,7.57
2023-05-01T03:42:47.642Z,7.54
2023-05-01T03:45:52.978Z,7.55
2023-05-01T03:48:57.832Z,7.56
2023-05-01T03:52:02.320Z,7.57
2023-05-01T03:55:08.006Z,7.58
2023-05-01T03:58:12.782Z,7.54
2023-05-01T04:01:17.144Z,7.51
2023-05-01T04:04:21.457Z,7.55
2023-05-01T04:07:26.232Z,7.59
2023-05-01T04:10:30.912Z,7.61
2023-05-01T04:13:35.475Z,7.61
2023-05-01T04:16:39.818Z,7.63
2023-05-01T04:19:44.388Z,7.66
2023-05-01T04:22:49.205Z,7.67
2023-05-01T04:25:53.998Z,7.69
2023-05-01T04:28:58.398Z,7.72
2023-05-01T04:32:02.890Z,7.72
2023-05-01T04:35:07.912Z,7.76
2023-05-01T04:38:11.955Z,7.81
2023-05-01T04:41:16.388Z,7.80
2023-05-01T04:44:20.740Z,7.85
2023-05-01T04:47:25.106Z,7.86
2023-05-01T04:50:29.336Z,7.91
2023-05-01T04:53:33.268Z,7.96
2023-05-01T04:56:37.681Z,7.96
2023-05-01T04:59:43.257Z,7.98
2023-05-01T05:02:47.868Z,8.08
2023-05-01T05:05:52.487Z,8.09
2023-05-01T05:08:57.855Z,8.11
2023-05-01T05:12:03.760Z,8.13
2023-05-01T05:15:08.743Z,8.16
2023-05-01T05:18:13.405Z,8.22
2023-05-01T05:21:18.292Z,8.26
2023-05-01T05:24:22.669Z,8.32
2023-05-01T05:27:26.899Z,8.37
2023-05-01T05:30:31.030Z,8.36
2023-05-01T05:33:35.533Z,8.41
2023-05-01T05:36:40.022Z,8.53
2023-05-01T05:39:44.395Z,8.57
2023-05-01T05:42:49.008Z,8.59
2023-05-01T05:45:58.537Z,8.67
2023-05-01T05:49:04.610Z,8.78
2023-05-01T05:52:08.574Z,8.82
2023-05-01T05:55:13.054Z,8.85
2023-05-01T05:58:20.080Z,8.92
2023-05-01T06:01:24.333Z,9.00
2023-05-01T06:04:28.776Z,9.05
2023-05-01T06:07:33.388Z,9.04
2023-05-01T06:10:39.644Z,9.13
2023-05-01T06:13:43.913Z,9.22
2023-05-01T06:16:48.364Z,9.30
2023-05-01T06:19:53.726Z,9.39
2023-05-01T06:22:58.797Z,9.45
2023-05-01T06:26:03.247Z,9.52
2023-05-01T06:29:07.511Z,9.64
2023-05-01T06:32:11.846Z,9.75
2023-05-01T06:35:16.384Z,9.86
2023-05-01T06:38:21.225Z,9.98
2023-05-01T06:41:25.916Z,10.18
2023-05-01T06:44:32.606Z,10.21
2023-05-01T06:47:37.055Z,10.23
2023-05-01T06:50:41.892Z,10.34
2023-05-01T06:53:46.384Z,10.39
2023-05-01T06:56:50.542Z,10.53
2023-05-01T06:59:54.930Z,10.57
2023-05-01T07:02:59.598Z,10.57
2023-05-01T07:06:04.470Z,10.57
2023-05-01T07:09:09.446Z,10.62
2023-05-01T07:12:13.878Z,10.79
2023-05-01T07:15:18.270Z,10.95
2023-05-01T07:18:22.672Z,11.00
2023-05-01T07:21:27.344Z,11.01
2023-05-01T07:24:31.626Z,11.11
2023-05-01T07:27:36.113Z,11.21
2023-05-01T07:30:41.015Z,11.27
2023-05-01T07:33:45.792Z,11.35
2023-05-01T07:36:49.867Z,11.47
2023-05-01T07:39:54.124Z,11.50
2023-05-01T07:42:58.585Z,11.52
2023-05-01T07:46:03.354Z,11.53
2023-05-01T07:49:08.075Z,11.65
2023-05-01T07:52:12.559Z,11.72
2023-05-01T07:55:19.223Z,11.80
2023-05-01T07:58:23.715Z,11.86
2023-05-01T08:01:28.342Z,12.03
2023-05-01T08:04:32.809Z,12.14
2023-05-01T08:07:37.633Z,12.17
2023-05-01T08:10:41.884Z,12.21
2023-05-01T08:13:46.314Z,12.29
2023-05-01T08:16:55.460Z,12.29
2023-05-01T08:20:00.877Z,12.33
2023-05-01T08:23:05.712Z,12.53
2023-05-01T08:26:10.152Z,12.71
2023-05-01T08:29:14.827Z,12.84
2023-05-01T08:32:19.557Z,12.97
2023-05-01T08:35:24.001Z,12.94
2023-05-01T08:38:28.186Z,12.90
2023-05-01T08:41:33.192Z,12.95
2023-05-01T08:44:41.152Z,13.06
2023-05-01T08:47:46.554Z,13.17
2023-05-01T08:50:55.156Z,13.23
2023-05-01T08:54:02.108Z,13.25
2023-05-01T08:57:10.250Z,13.28
2023-05-01T09:00:20.851Z,13.35
2023-05-01T09:03:28.915Z,13.33
2023-05-01T09:06:34.008Z,13.29
2023-05-01T09:09:39.019Z,13.37
2023-05-01T09:12:47.232Z,13.53
2023-05-01T09:15:52.015Z,13.78
2023-05-01T09:18:57.260Z,13.88
2023-05-01T09:22:01.779Z,13.88
2023-05-01T09:25:07.001Z,13.93
2023-05-01T09:28:11.887Z,14.01
2023-05-01T09:31:30.401Z,14.08
2023-05-01T09:34:35.142Z,14.12
2023-05-01T09:37:39.803Z,14.21
2023-05-01T09:40:43.916Z,14.28
2023-05-01T09:44:19.337Z,14.27
2023-05-01T09:47:23.798Z,14.36
2023-05-01T09:50:34.210Z,14.43
2023-05-01T09:53:41.723Z,14.63
2023-05-01T09:56:50.013Z,14.75
2023-05-01T10:00:08.462Z,14.80
2023-05-01T10:03:15.017Z,15.00
2023-05-01T10:06:29.243Z,15.08
2023-05-01T10:09:33.720Z,15.29
2023-05-01T10:12:38.139Z,15.45
2023-05-01T10:15:44.288Z,15.55
2023-05-01T10:18:48.540Z,15.57
2023-05-01T10:21:53.567Z,15.63
2023-05-01T10:24:59.344Z,15.72
2023-05-01T10:28:07.400Z,15.83
2023-05-01T10:31:13.410Z,15.89
2023-05-01T10:34:22.114Z,16.02
2023-05-01T10:38:04.911Z,16.23
2023-05-01T10:41:09.959Z,16.34
2023-05-01T10:44:26.944Z,16.64
2023-05-01T10:47:34.707Z,16.93
2023-05-01T10:51:09.318Z,17.13
2023-05-01T10:54:16.344Z,17.46
2023-05-01T10:57:44.440Z,17.73
2023-05-01T11:01:27.269Z,18.13
2023-05-01T11:04:50.847Z,18.57
2023-05-01T11:08:40.220Z,18.79
2023-05-01T11:11:44.398Z,18.98
2023-05-01T11:15:03.844Z,19.07
2023-05-01T11:18:08.139Z,18.64
2023-05-01T11:21:14.941Z,18.54
2023-05-01T11:24:20.120Z,18.17
2023-05-01T11:27:25.374Z,17.81
2023-05-01T11:30:40.563Z,17.69
2023-05-01T11:33:45.246Z,17.48
2023-05-01T11:36:53.831Z,17.35
2023-05-01T11:39:58.565Z,17.30
2023-05-01T11:43:08.318Z,17.42
2023-05-01T11:46:13.662Z,17.57
2023-05-01T11:49:28.746Z,17.53
2023-05-01T11:52:49.658Z,17.56
2023-05-01T11:55:54.484Z,17.72
2023-05-01T11:59:16.729Z,17.98
2023-05-01T12:02:21.412Z,18.11
2023-05-01T12:05:28.761Z,18.27
2023-05-01T12:08:33.551Z,18.55
2023-05-01T12:11:39.750Z,18.07
2023-05-01T12:14:44.408Z,17.91
2023-05-01T12:17:48.583Z,17.79
2023-05-01T12:20:55.200Z,17.58
2023-05-01T12:24:10.506Z,17.49
2023-05-01T12:27:15.082Z,17.46
2023-05-01T12:30:26.824Z,17.73
2023-05-01T12:33:31.782Z,17.80
2023-05-01T12:36:37.482Z,18.19
2023-05-01T12:39:44.987Z,18.66
2023-05-01T12:42:57.799Z,18.85
2023-05-01T12:46:04.974Z,19.18
2023-05-01T12:49:09.540Z,19.49
2023-05-01T12:52:13.749Z,19.26
2023-05-01T12:55:18.089Z,19.17
2023-05-01T12:58:23.763Z,19.00
2023-05-01T13:01:28.906Z,18.93
2023-05-01T13:04:35.150Z,18.95
2023-05-01T13:07:40.297Z,18.88
2023-05-01T13:10:44.628Z,19.08
2023-05-01T13:13:50.081Z,19.41
2023-05-01T13:16:55.737Z,19.50
2023-05-01T13:20:05.574Z,19.34
2023-05-01T13:23:13.056Z,18.91
2023-05-01T13:26:17.454Z,18.82
2023-05-01T13:29:23.653Z,18.82
2023-05-01T13:32:28.533Z,19.08
2023-05-01T13:35:33.271Z,19.38
2023-05-01T13:38:45.906Z,19.88
2023-05-01T13:41:54.235Z,19.89
2023-05-01T13:44:58.567Z,20.14
2023-05-01T13:48:04.695Z,20.75
2023-05-01T13:51:11.537Z,20.71
2023-05-01T13:54:16.719Z,20.60
2023-05-01T13:57:23.201Z,21.00
2023-05-01T14:00:27.456Z,21.31
2023-05-01T14:03:40.824Z,21.21
2023-05-01T14:06:47.517Z,20.88
2023-05-01T14:09:59.892Z,20.69
2023-05-01T14:13:05.141Z,19.76
2023-05-01T14:16:22.073Z,19.49
2023-05-01T14:19:27.271Z,19.35
2023-05-01T14:22:46.929Z,19.18
2023-05-01T14:25:51.625Z,20.26
2023-05-01T14:28:56.054Z,20.81
2023-05-01T14:32:04.523Z,21.10
2023-05-01T14:35:10.371Z,20.44
2023-05-01T14:38:17.366Z,19.47
2023-05-01T14:41:21.907Z,18.81
2023-05-01T14:44:30.818Z,18.59
2023-05-01T14:47:36.067Z,19.14
2023-05-01T14:50:41.158Z,19.81
2023-05-01T14:53:46.108Z,20.48
2023-05-01T14:56:50.648Z,20.44
2023-05-01T14:59:54.945Z,20.58
2023-05-01T15:03:00.153Z,20.09
2023-05-01T15:06:05.801Z,19.29
2023-05-01T15:09:10.161Z,19.25
2023-05-01T15:12:14.363Z,19.21
2023-05-01T15:15:18.904Z,18.84
2023-05-01T15:18:23.765Z,18.80
2023-05-01T15:21:28.296Z,18.71
2023-05-01T15:24:32.534Z,18.34
2023-05-01T15:27:37.022Z,18.28
2023-05-01T15:30:46.466Z,17.92
2023-05-01T15:33:50.780Z,17.63
2023-05-01T15:36:55.188Z,17.72
2023-05-01T15:39:59.561Z,17.33
2023-05-01T15:43:06.454Z,17.26
2023-05-01T15:46:11.552Z,17.27
2023-05-01T15:49:16.025Z,17.25
2023-05-01T15:52:20.224Z,17.16
2023-05-01T15:55:24.468Z,16.95
2023-05-01T15:58:28.686Z,16.84
2023-05-01T16:01:35.381Z,16.84
2023-05-01T16:04:40.352Z,16.87
2023-05-01T16:07:45.665Z,16.86
2023-05-01T16:10:50.182Z,16.75
2023-05-01T16:13:54.944Z,16.76
2023-05-01T16:16:59.627Z,16.63
2023-05-01T16:20:10.953Z,16.47
2023-05-01T16:23:15.685Z,16.42
2023-05-01T16:26:29.784Z,16.26
2023-05-01T16:29:35.414Z,16.18
2023-05-01T16:32:41.036Z,16.10
2023-05-01T16:35:49.061Z,15.96
2023-05-01T16:38:53.683Z,16.03
2023-05-01T16:41:58.416Z,16.00
2023-05-01T16:45:08.492Z,16.02
2023-05-01T16:48:23.167Z,16.01
2023-05-01T16:51:28.228Z,15.78
2023-05-01T16:54:35.770Z,15.79
2023-05-01T16:57:42.406Z,15.88
2023-05-01T17:00:48.470Z,15.73
2023-05-01T17:03:53.133Z,15.72
2023-05-01T17:06:58.181Z,15.80
2023-05-01T17:10:04.233Z,15.74
2023-05-01T17:13:09.027Z,15.78
2023-05-01T17:16:13.625Z,15.75
2023-05-01T17:19:17.955Z,15.81
2023-05-01T17:22:23.697Z,15.99
2023-05-01T17:25:28.387Z,15.99
2023-05-01T17:28:33.147Z,15.93
2023-05-01T17:31:37.619Z,15.78
2023-05-01T17:34:42.103Z,15.72
2023-05-01T17:37:46.336Z,16.03
2023-05-01T17:40:50.780Z,15.85
2023-05-01T17:43:55.267Z,15.99
2023-05-01T17:46:59.486Z,16.74
2023-05-01T17:50:04.750Z,16.52
2023-05-01T17:53:09.598Z,16.03
2023-05-01T17:56:14.453Z,15.79
2023-05-01T17:59:18.868Z,16.08
2023-05-01T18:02:23.845Z,16.13
2023-05-01T18:05:28.098Z,16.33
2023-05-01T18:08:32.480Z,15.86
2023-05-01T18:11:36.817Z,15.43
2023-05-01T18:14:41.238Z,15.00
2023-05-01T18:17:45.247Z,14.60
2023-05-01T18:20:49.862Z,14.57
2023-05-01T18:23:54.161Z,14.41
2023-05-01T18:26:59.916Z,14.26
2023-05-01T18:30:05.743Z,14.08
2023-05-01T18:33:10.871Z,13.98
2023-05-01T18:36:15.155Z,13.83
2023-05-01T18:39:23.615Z,13.75
2023-05-01T18:42:27.960Z,13.58
2023-05-01T18:45:40.649Z,13.42
2023-05-01T18:48:45.104Z,13.40
2023-05-01T18:51:49.796Z,13.31
2023-05-01T18:54:54.112Z,13.29
2023-05-01T18:57:58.226Z,13.20
2023-05-01T19:01:02.872Z,13.18
2023-05-01T19:04:07.307Z,13.08
2023-05-01T19:07:11.638Z,13.05
2023-05-01T19:10:15.870Z,12.93
2023-05-01T19:13:20.046Z,12.86
2023-05-01T19:16:26.331Z,12.76
2023-05-01T19:19:31.565Z,12.59
2023-05-01T19:22:36.349Z,12.66
2023-05-01T19:25:41.167Z,12.60
2023-05-01T19:28:45.698Z,12.49
2023-05-01T19:31:50.445Z,12.39
2023-05-01T19:34:56.041Z,12.29
2023-05-01T19:38:00.599Z,12.22
2023-05-01T19:41:08.027Z,12.20
2023-05-01T19:44:12.265Z,12.14
2023-05-01T19:47:16.675Z,11.99
2023-05-01T19:50:21.065Z,11.96
2023-05-01T19:53:25.223Z,11.87
2023-05-01T19:56:30.043Z,11.80
2023-05-01T19:59:36.258Z,11.72
2023-05-01T20:02:41.600Z,11.70
2023-05-01T20:05:45.825Z,11.66
2023-05-01T20:08:49.778Z,11.65
2023-05-01T20:11:54.312Z,11.51
2023-05-01T20:15:03.748Z,11.42
2023-05-01T20:18:09.169Z,11.42
2023-05-01T20:21:13.815Z,11.38
2023-05-01T20:24:18.070Z,11.39
2023-05-01T20:27:22.669Z,11.35
2023-05-01T20:30:26.790Z,11.35
2023-05-01T20:33:31.162Z,11.27
2023-05-01T20:36:35.797Z,11.35
2023-05-01T20:39:40.116Z,11.42
2023-05-01T20:42:44.614Z,11.37
2023-05-01T20:45:48.908Z,11.26
2023-05-01T20:48:54.222Z,11.38
2023-05-01T20:51:59.034Z,11.38
2023-05-01T20:55:04.092Z,11.31
2023-05-01T20:58:08.484Z,11.32
2023-05-01T21:01:12.600Z,11.28
2023-05-01T21:04:17.280Z,11.26
2023-05-01T21:07:21.656Z,11.18
2023-05-01T21:10:25.922Z,11.12
2023-05-01T21:13:32.180Z,11.06
2023-05-01T21:16:37.633Z,11.03
2023-05-01T21:19:45.584Z,11.06
2023-05-01T21:22:49.821Z,11.06
2023-05-01T21:25:54.657Z,11.08
2023-05-01T21:28:59.044Z,11.08
2023-05-01T21:32:04.202Z,11.06
2023-05-01T21:35:10.146Z,11.10
2023-05-01T21:38:15.503Z,11.08
2023-05-01T21:41:20.210Z,11.04
2023-05-01T21:44:30.027Z,11.01
2023-05-01T21:47:40.472Z,10.98
2023-05-01T21:50:49.852Z,11.02
2023-05-01T21:53:55.560Z,10.94
2023-05-01T21:57:00.930Z,10.97
2023-05-01T22:00:09.699Z,10.95
2023-05-01T22:03:18.142Z,10.93
2023-05-01T22:06:25.769Z,10.97
2023-05-01T22:09:31.733Z,10.94
2023-05-01T22:12:36.399Z,10.92
2023-05-01T22:15:40.907Z,10.90
2023-05-01T22:18:48.633Z,10.87
2023-05-01T22:21:54.383Z,10.94
2023-05-01T22:24:59.046Z,10.97
2023-05-01T22:28:05.587Z,10.98
2023-05-01T22:31:10.112Z,11.01
2023-05-01T22:34:14.531Z,11.00
2023-05-01T22:37:19.528Z,10.98
2023-05-01T22:40:24.377Z,10.97
2023-05-01T22:43:29.052Z,11.01
2023-05-01T22:46:33.828Z,10.94
2023-05-01T22:49:38.712Z,10.95
2023-05-01T22:52:44.691Z,10.94
2023-05-01T22:55:51.025Z,10.99
2023-05-01T22:58:55.640Z,11.05
2023-05-01T23:02:04.111Z,11.07
2023-05-01T23:05:10.336Z,11.00
2023-05-01T23:08:14.485Z,10.95
2023-05-01T23:11:19.618Z,10.94
2023-05-01T23:14:25.412Z,10.99
2023-05-01T23:17:35.145Z,11.03
2023-05-01T23:20:40.644Z,11.09
2023-05-01T23:23:46.989Z,11.12
2023-05-01T23:26:51.360Z,10.99
2023-05-01T23:29:58.860Z,10.94
2023-05-01T23:33:05.978Z,10.90
2023-05-01T23:36:12.455Z,10.94
2023-05-01T23:39:16.588Z,10.98
2023-05-01T23:42:22.703Z,11.01
2023-05-01T23:45:27.047Z,10.97
2023-05-01T23:48:33.402Z,10.97
2023-05-01T23:51:38.199Z,10.88
2023-05-01T23:54:42.564Z,10.87
2023-05-01T23:57:46.964Z,10.92
